Time;durP1;ratioP1;P1;durP2;ratioP2;P2;SDS_P1;SDS_P2;PMS_P1;PMS_P2;Temp;Humidity;BMP_temperature;BMP_pressure;BME280_temperature;BME280_humidity;BME280_pressure;Samples;Min_cycle;Max_cycle;Signal;HPM_P1;HPM_P2
2022/10/06 00:01:12;;;;;;;6.90;1.63;;;13.20;99.90;;;;;;4838539;29;20511;-86
2022/10/06 00:03:38;;;;;;;4.68;1.20;;;13.00;99.90;;;;;;4877123;29;21000;-86
2022/10/06 00:06:05;;;;;;;9.82;1.42;;;13.10;99.90;;;;;;4854386;29;20080;-87
2022/10/06 00:08:33;;;;;;;7.50;1.45;;;13.10;99.90;;;;;;4836381;29;20048;-86
2022/10/06 00:10:59;;;;;;;4.43;1.38;;;13.00;99.90;;;;;;4848897;29;20053;-86
2022/10/06 00:13:29;;;;;;;8.35;1.52;;;13.00;99.90;;;;;;4862156;29;20432;-86
2022/10/06 00:15:56;;;;;;;4.95;1.55;;;13.10;99.90;;;;;;4853964;29;20041;-86
2022/10/06 00:18:21;;;;;;;8.27;1.73;;;13.00;99.90;;;;;;4864304;29;20518;-87
2022/10/06 00:20:55;;;;;;;12.07;1.60;;;12.90;99.90;;;;;;4848982;29;20048;-86
2022/10/06 00:23:21;;;;;;;6.22;1.40;;;12.90;99.90;;;;;;4844880;29;20124;-86
2022/10/06 00:25:47;;;;;;;11.10;1.90;;;12.90;99.90;;;;;;4854606;29;20047;-86
2022/10/06 00:28:13;;;;;;;12.35;1.85;;;12.90;99.90;;;;;;4870549;29;20044;-86
2022/10/06 00:30:38;;;;;;;10.23;1.70;;;12.90;99.90;;;;;;4861485;29;20041;-87
2022/10/06 00:33:10;;;;;;;10.32;1.67;;;12.90;99.90;;;;;;4822161;29;20059;-86
2022/10/06 00:35:36;;;;;;;12.38;2.00;;;12.80;99.90;;;;;;4836389;29;20045;-87
2022/10/06 00:38:02;;;;;;;6.25;1.50;;;12.80;99.90;;;;;;4837846;29;20061;-86
2022/10/06 00:40:29;;;;;;;5.72;1.50;;;12.80;99.90;;;;;;4851534;29;20493;-86
2022/10/06 00:43:01;;;;;;;6.40;1.63;;;12.70;99.90;;;;;;4854571;29;20045;-87
2022/10/06 00:45:44;;;;;;;9.05;1.48;;;12.50;99.90;;;;;;4868472;29;20040;-86
2022/10/06 00:48:25;;;;;;;5.40;1.25;;;12.60;99.90;;;;;;4835918;29;20502;-86
2022/10/06 00:50:55;;;;;;;7.57;1.60;;;12.50;99.90;;;;;;4847267;29;20121;-87
2022/10/06 00:53:22;;;;;;;6.70;1.50;;;12.50;99.90;;;;;;4849370;29;20072;-86
2022/10/06 00:55:48;;;;;;;8.48;2.13;;;12.50;99.90;;;;;;4835212;29;20044;-86
2022/10/06 00:58:18;;;;;;;9.45;2.13;;;12.40;99.90;;;;;;4851492;29;20034;-87
2022/10/06 01:00:46;;;;;;;6.90;1.77;;;12.40;99.90;;;;;;4851493;29;20111;-86
2022/10/06 01:03:20;;;;;;;7.80;1.40;;;12.50;99.90;;;;;;4853180;29;20045;-86
2022/10/06 01:05:49;;;;;;;7.70;1.90;;;12.50;99.90;;;;;;4830295;29;20664;-86
2022/10/06 01:08:16;;;;;;;8.45;2.05;;;12.50;99.90;;;;;;4875818;29;20517;-87
2022/10/06 01:10:41;;;;;;;5.13;1.58;;;12.50;99.90;;;;;;4837800;29;20041;-86
2022/10/06 01:13:14;;;;;;;7.13;2.22;;;12.50;99.90;;;;;;4860455;29;20049;-86
2022/10/06 01:15:49;;;;;;;8.88;2.13;;;12.40;99.90;;;;;;4865530;29;20570;-87
2022/10/06 01:18:17;;;;;;;7.15;2.00;;;12.50;99.90;;;;;;4836649;29;20033;-86
2022/10/06 01:21:05;;;;;;;11.00;1.95;;;12.60;99.90;;;;;;4816449;29;20505;-86
2022/10/06 01:23:32;;;;;;;10.15;1.83;;;12.60;99.90;;;;;;4865267;29;20077;-86
2022/10/06 01:26:00;;;;;;;9.73;2.53;;;12.60;99.90;;;;;;4853626;29;20495;-86
2022/10/06 01:28:26;;;;;;;11.88;1.92;;;12.70;99.90;;;;;;4866521;29;20127;-87
2022/10/06 01:30:53;;;;;;;7.13;1.70;;;12.60;99.90;;;;;;4834079;29;20489;-87
2022/10/06 01:33:20;;;;;;;9.18;1.80;;;12.50;99.90;;;;;;4862179;29;20116;-86
2022/10/06 01:35:49;;;;;;;7.00;1.60;;;12.40;99.90;;;;;;4853069;29;20080;-86
2022/10/06 01:38:18;;;;;;;7.90;1.60;;;12.40;99.90;;;;;;4854465;29;20499;-86
2022/10/06 01:40:45;;;;;;;9.82;2.17;;;12.30;99.90;;;;;;4878819;29;20056;-87
2022/10/06 01:43:11;;;;;;;13.75;2.20;;;12.20;99.90;;;;;;4838716;29;20065;-86
2022/10/06 01:45:36;;;;;;;10.85;2.42;;;12.30;99.90;;;;;;4866653;29;20049;-86
2022/10/06 01:48:03;;;;;;;8.65;1.80;;;12.30;99.90;;;;;;4853770;29;20041;-87
2022/10/06 01:50:28;;;;;;;10.60;2.25;;;12.30;99.90;;;;;;4872019;29;20063;-87
2022/10/06 01:52:56;;;;;;;7.65;1.70;;;12.20;99.90;;;;;;4852594;29;20064;-86
2022/10/06 01:55:23;;;;;;;12.18;1.73;;;12.10;99.90;;;;;;4869482;29;20156;-86
2022/10/06 01:57:48;;;;;;;7.97;2.00;;;12.20;99.90;;;;;;4869654;29;20101;-85
2022/10/06 02:00:14;;;;;;;13.10;2.67;;;12.10;99.90;;;;;;4865359;29;20069;-86
2022/10/06 02:02:41;;;;;;;12.52;1.75;;;12.20;99.90;;;;;;4865034;29;20128;-85
2022/10/06 02:05:07;;;;;;;8.52;2.10;;;12.30;99.90;;;;;;4867923;29;20073;-87
2022/10/06 02:07:37;;;;;;;13.88;2.13;;;12.20;99.90;;;;;;4865438;29;20139;-86
2022/10/06 02:10:04;;;;;;;10.27;1.98;;;12.10;99.90;;;;;;4871331;29;20128;-86
2022/10/06 02:12:30;;;;;;;9.60;2.40;;;12.10;99.90;;;;;;4880113;29;20045;-86
2022/10/06 02:14:57;;;;;;;9.00;1.95;;;12.10;99.90;;;;;;4853596;29;20491;-87
2022/10/06 02:17:23;;;;;;;7.28;2.05;;;12.00;99.90;;;;;;4863094;29;20568;-87
2022/10/06 02:19:49;;;;;;;8.55;1.73;;;11.90;99.90;;;;;;4864741;29;20041;-86
2022/10/06 02:22:17;;;;;;;11.05;2.92;;;12.00;99.90;;;;;;4858469;29;20047;-86
2022/10/06 02:24:43;;;;;;;11.10;2.00;;;11.90;99.90;;;;;;4865027;29;20049;-87
2022/10/06 02:27:09;;;;;;;13.00;2.05;;;11.80;99.90;;;;;;4869108;29;20049;-86
2022/10/06 02:29:35;;;;;;;11.02;2.28;;;11.70;99.90;;;;;;4869637;29;20051;-86
2022/10/06 02:32:00;;;;;;;9.27;1.88;;;11.70;99.90;;;;;;4878706;29;20049;-87
2022/10/06 02:34:26;;;;;;;10.82;2.30;;;11.60;99.90;;;;;;4877775;29;20037;-86
2022/10/06 02:36:55;;;;;;;10.63;2.40;;;11.50;99.90;;;;;;4866885;29;20048;-86
2022/10/06 02:39:20;;;;;;;10.40;2.20;;;11.60;99.90;;;;;;4871700;29;20350;-86
2022/10/06 02:41:46;;;;;;;10.05;2.20;;;11.50;99.90;;;;;;4854502;29;20113;-86
2022/10/06 02:44:12;;;;;;;7.22;1.75;;;11.50;99.90;;;;;;4849637;29;20500;-86
2022/10/06 02:46:38;;;;;;;8.73;2.05;;;11.40;99.90;;;;;;4853691;29;20493;-86
2022/10/06 02:49:07;;;;;;;12.77;2.08;;;11.40;99.90;;;;;;4852506;29;20053;-86
2022/10/06 02:51:33;;;;;;;11.88;2.38;;;11.40;99.90;;;;;;4876509;29;20045;-86
2022/10/06 02:53:58;;;;;;;12.43;2.10;;;11.30;99.90;;;;;;4847064;29;20480;-86
2022/10/06 02:56:25;;;;;;;13.32;2.45;;;11.20;99.90;;;;;;4850777;29;20049;-86
2022/10/06 02:58:52;;;;;;;11.48;2.47;;;11.30;99.90;;;;;;4863758;29;20601;-86
2022/10/06 03:01:22;;;;;;;9.40;2.15;;;11.30;99.90;;;;;;4848361;29;20059;-86
2022/10/06 03:03:49;;;;;;;10.80;1.88;;;11.30;99.90;;;;;;4868808;29;20506;-86
2022/10/06 03:06:24;;;;;;;10.63;2.17;;;11.30;99.90;;;;;;4867905;29;20120;-86
2022/10/06 03:08:57;;;;;;;8.82;2.08;;;11.30;99.90;;;;;;4861988;29;20061;-86
2022/10/06 03:11:25;;;;;;;7.43;1.70;;;11.20;99.90;;;;;;4821133;29;20113;-86
2022/10/06 03:13:52;;;;;;;7.85;2.17;;;11.20;99.90;;;;;;4863037;29;20049;-86
2022/10/06 03:16:23;;;;;;;8.63;2.03;;;11.20;99.90;;;;;;4861893;29;20317;-87
2022/10/06 03:18:51;;;;;;;9.70;2.10;;;11.20;99.90;;;;;;4869122;29;20053;-86
2022/10/06 03:21:22;;;;;;;9.90;2.15;;;11.30;99.90;;;;;;4838555;29;20052;-85
2022/10/06 03:23:49;;;;;;;6.93;1.80;;;11.30;99.90;;;;;;4864836;29;20037;-86
2022/10/06 03:26:17;;;;;;;11.52;2.17;;;11.20;99.90;;;;;;4866436;29;20149;-86
2022/10/06 03:28:43;;;;;;;9.15;2.08;;;11.40;99.90;;;;;;4845112;29;20084;-86
2022/10/06 03:31:09;;;;;;;8.10;1.92;;;11.40;99.90;;;;;;4853764;29;20047;-86
2022/10/06 03:33:35;;;;;;;8.88;2.03;;;11.30;99.90;;;;;;4847475;29;20045;-86
2022/10/06 03:36:11;;;;;;;9.23;2.25;;;11.40;99.90;;;;;;4854691;29;20056;-86
2022/10/06 03:38:37;;;;;;;10.05;2.10;;;11.40;99.90;;;;;;4836700;29;20048;-86
2022/10/06 03:41:09;;;;;;;9.48;2.03;;;11.40;99.90;;;;;;4837159;29;20371;-86
2022/10/06 03:43:38;;;;;;;10.32;2.05;;;11.40;99.90;;;;;;4862418;29;20052;-86
2022/10/06 03:46:05;;;;;;;10.93;1.95;;;11.20;99.90;;;;;;4868517;29;20053;-86
2022/10/06 03:48:33;;;;;;;9.38;1.88;;;11.30;99.90;;;;;;4847884;29;20529;-86
2022/10/06 03:51:01;;;;;;;10.88;2.00;;;11.20;99.90;;;;;;4848681;29;20045;-86
2022/10/06 03:53:34;;;;;;;14.15;2.22;;;11.30;99.90;;;;;;4853476;29;20076;-86
2022/10/06 03:56:03;;;;;;;7.93;1.70;;;11.20;99.90;;;;;;4843903;29;20367;-86
2022/10/06 03:58:30;;;;;;;11.85;2.45;;;11.30;99.90;;;;;;4876615;29;20046;-87
2022/10/06 04:01:07;;;;;;;9.30;2.30;;;11.30;99.90;;;;;;4842030;29;20148;-87
2022/10/06 04:03:33;;;;;;;7.70;2.05;;;11.20;99.90;;;;;;4835944;29;20082;-86
2022/10/06 04:06:01;;;;;;;9.15;2.33;;;11.20;99.90;;;;;;4865247;29;20053;-86
2022/10/06 04:08:29;;;;;;;12.00;2.30;;;11.20;99.90;;;;;;4868358;29;20093;-85
2022/10/06 04:11:02;;;;;;;9.77;2.20;;;11.10;99.90;;;;;;4845471;29;20050;-86
2022/10/06 04:13:28;;;;;;;7.75;2.00;;;11.20;99.90;;;;;;4849015;29;20049;-86
2022/10/06 04:15:54;;;;;;;14.98;2.10;;;11.00;99.90;;;;;;4851087;29;20200;-86
2022/10/06 04:18:19;;;;;;;12.05;2.10;;;11.00;99.90;;;;;;4849850;29;20037;-86
2022/10/06 04:20:45;;;;;;;5.90;1.85;;;11.00;99.90;;;;;;4847647;29;20159;-86
2022/10/06 04:23:11;;;;;;;6.97;1.80;;;11.00;99.90;;;;;;4866486;29;20049;-87
2022/10/06 04:25:37;;;;;;;8.00;2.20;;;11.10;99.90;;;;;;4865348;29;20116;-86
2022/10/06 04:28:02;;;;;;;7.22;2.20;;;11.00;99.90;;;;;;4864333;29;20049;-86
2022/10/06 04:30:29;;;;;;;9.75;2.40;;;11.00;99.90;;;;;;4877585;29;20478;-86
2022/10/06 04:32:55;;;;;;;9.45;1.85;;;10.90;99.90;;;;;;4835747;29;20497;-86
2022/10/06 04:35:21;;;;;;;14.05;2.28;;;10.90;99.90;;;;;;4851837;29;20052;-86
2022/10/06 04:37:46;;;;;;;7.68;2.03;;;11.00;99.90;;;;;;4867806;29;20599;-86
2022/10/06 04:40:12;;;;;;;10.65;2.13;;;11.00;99.90;;;;;;4849948;29;20121;-86
2022/10/06 04:42:39;;;;;;;8.65;2.03;;;10.90;99.90;;;;;;4867080;29;20124;-86
2022/10/06 04:45:05;;;;;;;12.00;2.15;;;10.90;99.90;;;;;;4853534;29;20080;-87
2022/10/06 04:47:31;;;;;;;10.63;2.20;;;10.90;99.90;;;;;;4845061;29;20049;-87
2022/10/06 04:49:57;;;;;;;12.10;2.13;;;10.90;99.90;;;;;;4848226;29;20049;-86
2022/10/06 04:52:25;;;;;;;14.18;2.22;;;10.80;99.90;;;;;;4865304;29;20060;-87
2022/10/06 04:54:51;;;;;;;12.35;2.05;;;10.90;99.90;;;;;;4867033;29;20177;-86
2022/10/06 04:57:16;;;;;;;14.60;2.53;;;10.80;99.90;;;;;;4846910;29;20174;-86
2022/10/06 05:02:27;;;;;;;9.52;1.90;;;10.80;99.90;;;;;;4865011;29;20041;-86
2022/10/06 05:04:53;;;;;;;11.57;2.20;;;10.80;99.90;;;;;;4863648;29;20048;-86
2022/10/06 05:07:19;;;;;;;9.10;1.85;;;10.80;99.90;;;;;;4849209;29;20038;-86
2022/10/06 05:09:44;;;;;;;12.20;2.53;;;10.90;99.90;;;;;;4856260;29;20045;-86
2022/10/06 05:12:10;;;;;;;13.15;2.40;;;10.90;99.90;;;;;;4853359;29;20050;-86
2022/10/06 05:14:36;;;;;;;9.40;2.42;;;10.80;99.90;;;;;;4855768;29;20105;-86
2022/10/06 05:17:01;;;;;;;17.13;2.80;;;10.80;99.90;;;;;;4864826;29;20160;-86
2022/10/06 05:19:27;;;;;;;9.32;1.92;;;10.70;99.90;;;;;;4866747;29;20079;-86
2022/10/06 05:21:53;;;;;;;10.20;1.98;;;10.60;99.90;;;;;;4883548;29;20037;-87
2022/10/06 05:24:18;;;;;;;10.13;2.05;;;10.70;99.90;;;;;;4871456;29;20049;-86
2022/10/06 05:26:44;;;;;;;9.65;2.30;;;10.60;99.90;;;;;;4879619;29;20037;-87
2022/10/06 05:29:10;;;;;;;9.75;2.20;;;10.60;99.90;;;;;;4849909;29;20093;-86
2022/10/06 05:31:41;;;;;;;5.80;1.85;;;10.60;99.90;;;;;;4852191;29;20376;-86
2022/10/06 05:34:08;;;;;;;10.77;2.17;;;10.60;99.90;;;;;;4868321;29;20073;-86
2022/10/06 05:36:34;;;;;;;8.93;1.90;;;10.60;99.90;;;;;;4852835;29;20096;-87
2022/10/06 05:39:00;;;;;;;13.32;2.35;;;10.70;99.90;;;;;;4861696;29;20720;-86
2022/10/06 05:41:31;;;;;;;7.95;1.92;;;10.70;99.90;;;;;;4857372;29;20845;-86
2022/10/06 05:43:57;;;;;;;11.82;2.13;;;10.60;99.90;;;;;;4850230;29;20050;-86
2022/10/06 05:46:29;;;;;;;11.02;2.10;;;10.70;99.90;;;;;;4854313;29;20119;-86
2022/10/06 05:48:59;;;;;;;10.30;2.05;;;10.70;99.90;;;;;;4822158;29;20049;-86
2022/10/06 05:51:28;;;;;;;9.45;1.63;;;10.60;99.90;;;;;;4836919;29;20060;-86
2022/10/06 05:53:54;;;;;;;8.32;1.80;;;10.70;99.90;;;;;;4853094;29;20070;-86
2022/10/06 05:56:25;;;;;;;7.88;1.88;;;10.60;99.90;;;;;;4868660;29;20049;-86
2022/10/06 05:58:53;;;;;;;10.32;1.88;;;10.60;99.90;;;;;;4851542;29;20564;-87
2022/10/06 06:01:20;;;;;;;5.15;1.73;;;10.60;99.90;;;;;;4884521;29;20213;-86
2022/10/06 06:03:55;;;;;;;10.93;2.22;;;10.60;99.90;;;;;;4846873;29;20048;-86
2022/10/06 06:06:23;;;;;;;7.90;1.73;;;10.60;99.90;;;;;;4880380;29;20063;-86
2022/10/06 06:09:01;;;;;;;14.40;1.90;;;10.70;99.90;;;;;;4848303;29;20398;-86
2022/10/06 06:11:30;;;;;;;8.50;1.70;;;10.80;99.90;;;;;;4864951;29;20517;-86
2022/10/06 06:14:04;;;;;;;8.75;1.48;;;10.90;99.90;;;;;;4860616;29;20277;-87
2022/10/06 06:16:30;;;;;;;8.18;1.83;;;11.10;99.90;;;;;;4874191;29;20282;-86
2022/10/06 06:18:57;;;;;;;13.75;1.83;;;11.10;99.90;;;;;;4862430;29;20072;-86
2022/10/06 06:21:24;;;;;;;7.63;1.70;;;11.20;99.90;;;;;;4881308;29;20434;-86
2022/10/06 06:23:50;;;;;;;8.75;1.52;;;11.20;99.90;;;;;;4864587;29;20092;-86
2022/10/06 06:26:19;;;;;;;4.45;1.63;;;11.20;99.90;;;;;;4876900;29;20486;-87
2022/10/06 06:28:49;;;;;;;8.10;1.65;;;11.10;99.90;;;;;;4839786;29;20076;-86
2022/10/06 06:31:21;;;;;;;6.13;1.58;;;11.10;99.90;;;;;;4864154;29;20053;-86
2022/10/06 06:33:58;;;;;;;15.50;2.88;;;11.10;99.90;;;;;;4851322;29;20132;-86
2022/10/06 06:36:35;;;;;;;8.27;1.58;;;11.20;99.90;;;;;;4865929;29;20064;-86
2022/10/06 06:39:07;;;;;;;10.57;2.20;;;11.30;99.90;;;;;;4840184;29;20065;-86
2022/10/06 06:41:38;;;;;;;6.45;1.58;;;11.30;99.90;;;;;;4853179;29;20041;-86
2022/10/06 06:44:07;;;;;;;7.53;1.63;;;11.30;99.90;;;;;;4861250;29;20067;-86
2022/10/06 06:46:33;;;;;;;14.68;2.38;;;11.30;99.90;;;;;;4868344;29;20532;-86
2022/10/06 06:49:03;;;;;;;8.32;1.95;;;11.40;99.90;;;;;;4835072;29;20127;-87
2022/10/06 06:51:30;;;;;;;13.85;2.08;;;11.40;99.90;;;;;;4863008;29;20053;-86
2022/10/06 06:53:58;;;;;;;8.80;1.85;;;11.60;99.90;;;;;;4850355;29;20041;-88
2022/10/06 06:56:24;;;;;;;11.43;1.95;;;11.60;99.90;;;;;;4878778;29;20438;-86
2022/10/06 06:58:50;;;;;;;10.30;2.05;;;11.70;99.90;;;;;;4865767;29;20137;-86
2022/10/06 07:01:21;;;;;;;10.07;2.20;;;11.80;99.90;;;;;;4863017;29;20077;-86
2022/10/06 07:03:53;;;;;;;9.00;2.05;;;11.70;99.90;;;;;;4862842;29;20045;-87
2022/10/06 07:06:22;;;;;;;11.25;2.20;;;11.80;99.90;;;;;;4856408;29;20421;-86
2022/10/06 07:08:48;;;;;;;7.00;1.60;;;11.90;99.90;;;;;;4879477;29;20129;-86
2022/10/06 07:11:23;;;;;;;9.80;1.80;;;11.90;99.90;;;;;;4869622;29;20046;-87
2022/10/06 07:14:00;;;;;;;13.90;2.17;;;11.90;99.90;;;;;;4876812;29;20045;-86
2022/10/06 07:25:11;;;;;;;6.93;1.88;;;12.20;99.90;;;;;;4877695;29;20133;-88
2022/10/06 07:27:45;;;;;;;5.70;1.90;;;12.20;99.90;;;;;;4864993;29;20136;-87
2022/10/06 07:30:29;;;;;;;11.27;2.37;;;12.30;99.90;;;;;;4878141;29;20041;-87
2022/10/06 07:32:55;;;;;;;8.50;1.73;;;12.40;99.90;;;;;;4861745;29;20046;-87
2022/10/06 07:35:22;;;;;;;11.02;2.17;;;12.50;99.90;;;;;;4876878;29;20049;-87
2022/10/06 07:37:49;;;;;;;7.82;2.13;;;12.40;99.90;;;;;;4861608;29;20507;-86
2022/10/06 07:40:15;;;;;;;10.27;2.00;;;12.50;99.90;;;;;;4867820;29;20421;-87
2022/10/06 07:42:48;;;;;;;8.85;1.70;;;12.60;99.90;;;;;;4877035;29;20133;-86
2022/10/06 07:48:02;;;;;;;8.18;1.80;;;12.70;99.90;;;;;;4878556;29;20088;-87
2022/10/06 07:50:28;;;;;;;13.05;2.22;;;12.80;99.90;;;;;;4868069;29;20053;-87
2022/10/06 07:53:07;;;;;;;6.90;1.67;;;12.90;99.90;;;;;;4852252;29;20216;-86
2022/10/06 07:55:35;;;;;;;10.60;2.30;;;12.90;99.90;;;;;;4869039;29;20474;-87
2022/10/06 07:58:02;;;;;;;10.50;2.22;;;12.90;99.90;;;;;;4847540;29;20117;-87
2022/10/06 08:00:27;;;;;;;16.33;2.30;;;13.10;99.90;;;;;;4875303;29;20362;-87
2022/10/06 08:02:56;;;;;;;9.38;1.58;;;13.10;99.90;;;;;;4867391;29;20347;-87
2022/10/06 08:05:21;;;;;;;10.88;2.30;;;13.10;99.90;;;;;;4895273;29;20279;-88
2022/10/06 08:07:47;;;;;;;9.00;2.38;;;13.20;99.90;;;;;;4872837;29;20530;-87
2022/10/06 08:10:13;;;;;;;7.68;1.90;;;13.30;99.90;;;;;;4853314;29;20056;-86
2022/10/06 08:12:41;;;;;;;8.40;1.98;;;13.40;99.90;;;;;;4886018;29;20059;-86
2022/10/06 08:15:10;;;;;;;11.75;2.22;;;13.50;99.90;;;;;;4897163;29;20161;-86
2022/10/06 08:17:36;;;;;;;10.45;2.03;;;13.50;99.90;;;;;;4871021;29;20041;-87
2022/10/06 08:20:04;;;;;;;10.88;2.00;;;13.60;99.90;;;;;;4854069;29;20068;-87
2022/10/06 08:22:32;;;;;;;9.90;2.53;;;13.70;99.90;;;;;;4871285;29;20127;-86
2022/10/06 08:24:58;;;;;;;9.45;1.88;;;13.70;99.90;;;;;;4900455;29;20148;-86
2022/10/06 08:27:27;;;;;;;9.90;2.40;;;13.80;99.90;;;;;;4885351;29;20152;-87
2022/10/06 08:29:54;;;;;;;11.77;2.22;;;13.80;99.90;;;;;;4851011;29;20095;-87
2022/10/06 08:32:21;;;;;;;10.60;2.55;;;14.00;99.90;;;;;;4852469;29;20122;-87
2022/10/06 08:34:48;;;;;;;9.82;1.85;;;14.00;99.90;;;;;;4854084;29;20041;-86
2022/10/06 08:37:15;;;;;;;8.90;2.05;;;14.10;99.90;;;;;;4858877;29;20053;-87
2022/10/06 08:39:41;;;;;;;8.57;2.13;;;14.10;99.90;;;;;;4879681;29;20045;-87
2022/10/06 08:42:17;;;;;;;7.80;1.70;;;14.20;99.90;;;;;;4886396;29;20158;-87
2022/10/06 08:44:47;;;;;;;9.93;2.08;;;14.20;99.90;;;;;;4872109;29;20048;-87
2022/10/06 08:47:23;;;;;;;8.48;2.10;;;14.30;99.90;;;;;;4867308;29;20573;-87
2022/10/06 08:49:55;;;;;;;8.15;1.75;;;14.30;99.90;;;;;;4881521;29;20041;-86
2022/10/06 08:52:47;;;;;;;9.57;1.83;;;14.30;99.90;;;;;;4866547;29;20301;-86
2022/10/06 08:55:22;;;;;;;10.25;1.85;;;14.40;1.00;;;;;;4865901;29;20040;-86
2022/10/06 08:58:28;;;;;;;10.07;1.77;;;14.50;1.00;;;;;;4885903;29;20048;-87
2022/10/06 09:01:22;;;;;;;8.60;1.65;;;14.50;99.90;;;;;;4864044;29;20158;-88
2022/10/06 09:03:50;;;;;;;10.95;2.00;;;14.60;99.90;;;;;;4854950;29;20090;-86
2022/10/06 09:06:44;;;;;;;12.68;1.90;;;14.70;99.90;;;;;;4866944;29;20048;-87
2022/10/06 09:09:34;;;;;;;7.93;2.20;;;14.70;99.90;;;;;;4863055;29;20125;-86
2022/10/06 09:12:00;;;;;;;10.18;2.08;;;14.90;99.90;;;;;;4866151;29;20092;-87
2022/10/06 09:14:40;;;;;;;8.25;1.90;;;14.80;99.90;;;;;;4880345;29;20514;-86
2022/10/06 09:17:16;;;;;;;9.95;1.70;;;14.80;1.00;;;;;;4847518;29;20084;-87
2022/10/06 09:20:10;;;;;;;9.15;1.88;;;14.90;99.90;;;;;;4869074;29;20644;-87
2022/10/06 09:22:36;;;;;;;9.10;1.98;;;14.90;99.90;;;;;;4838542;29;20061;-87
2022/10/06 09:25:18;;;;;;;6.82;1.70;;;15.00;99.90;;;;;;4851666;29;20049;-86
2022/10/06 09:27:54;;;;;;;8.45;1.73;;;15.20;99.90;;;;;;4867969;29;20124;-87
2022/10/06 09:30:20;;;;;;;11.40;1.83;;;15.30;99.90;;;;;;4877606;29;20072;-86
2022/10/06 09:32:52;;;;;;;8.20;1.80;;;15.30;1.00;;;;;;4867797;29;20465;-86
2022/10/06 09:35:20;;;;;;;6.63;1.73;;;15.30;99.90;;;;;;4853099;29;20054;-87
2022/10/06 09:37:56;;;;;;;8.20;2.28;;;15.20;99.90;;;;;;4849832;29;20057;-87
2022/10/06 09:40:37;;;;;;;6.25;1.60;;;15.30;99.90;;;;;;4865002;29;20097;-87
2022/10/06 09:43:28;;;;;;;7.72;1.77;;;15.40;99.90;;;;;;4876157;29;20044;-87
2022/10/06 09:45:55;;;;;;;7.10;1.73;;;15.50;99.90;;;;;;4851520;29;20120;-88
2022/10/06 09:48:25;;;;;;;8.95;1.70;;;15.60;99.90;;;;;;4849073;29;20087;-87
2022/10/06 09:51:12;;;;;;;8.30;1.67;;;15.60;79.50;;;;;;4852289;29;20049;-87
2022/10/06 09:53:38;;;;;;;6.68;1.50;;;15.40;99.90;;;;;;4866789;29;20146;-87
2022/10/06 09:56:17;;;;;;;5.70;1.48;;;15.40;1.00;;;;;;4870414;29;20121;-86
2022/10/06 09:58:57;;;;;;;10.75;1.60;;;15.50;10.40;;;;;;4865836;29;20046;-88
2022/10/06 10:01:28;;;;;;;6.72;1.77;;;15.60;1.00;;;;;;4882529;29;20054;-86
2022/10/06 10:04:01;;;;;;;9.07;1.70;;;15.60;99.90;;;;;;4866247;29;20386;-87
2022/10/06 10:06:29;;;;;;;7.35;1.80;;;15.80;1.00;;;;;;4875887;29;20129;-87
2022/10/06 10:09:18;;;;;;;6.50;1.33;;;16.00;1.00;;;;;;4869396;29;20181;-87
2022/10/06 10:14:36;;;;;;;5.43;1.85;;;16.20;99.90;;;;;;4867834;29;20053;-87
2022/10/06 10:17:19;;;;;;;7.88;1.80;;;16.30;25.80;;;;;;4849792;29;20049;-87
2022/10/06 10:19:54;;;;;;;4.53;1.23;;;16.60;99.90;;;;;;4868987;29;20498;-87
2022/10/06 10:22:24;;;;;;;10.45;1.77;;;16.50;99.90;;;;;;4866605;29;20037;-87
2022/10/06 10:25:16;;;;;;;5.97;1.67;;;16.50;1.00;;;;;;4871676;29;20044;-87
2022/10/06 10:28:16;;;;;;;6.97;1.60;;;16.40;1.00;;;;;;4845316;29;20193;-88
2022/10/06 10:30:55;;;;;;;7.40;1.80;;;16.30;99.90;;;;;;4882544;29;20101;-88
2022/10/06 10:34:01;;;;;;;7.95;1.60;;;16.20;20.00;;;;;;4849258;29;20178;-88
2022/10/06 10:36:51;;;;;;;6.60;1.58;;;16.20;99.90;;;;;;4852045;29;20140;-87
2022/10/06 10:39:46;;;;;;;7.05;2.58;;;16.20;1.00;;;;;;4835767;29;20392;-87
2022/10/06 10:42:27;;;;;;;5.53;1.50;;;16.40;99.90;;;;;;4872327;29;20401;-88
2022/10/06 10:44:58;;;;;;;4.43;1.50;;;16.50;53.10;;;;;;4863130;29;20045;-89
2022/10/06 10:47:33;;;;;;;7.20;1.80;;;16.60;99.90;;;;;;4881760;29;20397;-88
2022/10/06 10:50:10;;;;;;;4.40;1.42;;;16.60;1.00;;;;;;4866147;29;20274;-87
2022/10/06 10:52:41;;;;;;;6.75;1.40;;;16.60;1.00;;;;;;4864512;29;20093;-86
2022/10/06 10:55:33;;;;;;;6.70;1.25;;;16.70;99.90;;;;;;4883548;29;20049;-87
2022/10/06 10:58:10;;;;;;;8.38;1.77;;;16.50;99.90;;;;;;4882929;29;20386;-88
2022/10/06 11:00:40;;;;;;;13.82;1.45;;;16.50;1.00;;;;;;4885869;29;20064;-87
2022/10/06 11:03:10;;;;;;;9.48;1.52;;;16.70;1.00;;;;;;4852426;29;20306;-88
2022/10/06 11:05:59;;;;;;;8.52;1.33;;;16.70;82.40;;;;;;4899504;29;20140;-88
2022/10/06 11:08:51;;;;;;;5.53;1.10;;;16.70;1.00;;;;;;4856809;29;20041;-88
2022/10/06 11:11:53;;;;;;;4.80;1.20;;;16.90;99.90;;;;;;4856497;29;20362;-87
2022/10/06 11:14:47;;;;;;;4.03;1.30;;;16.80;99.90;;;;;;4882682;29;20045;-87
2022/10/06 11:17:38;;;;;;;6.97;1.52;;;16.90;1.00;;;;;;4884780;29;20121;-88
2022/10/06 11:20:32;;;;;;;6.85;1.48;;;16.80;99.90;;;;;;4867412;29;20044;-88
2022/10/06 11:23:21;;;;;;;8.73;2.08;;;16.70;99.90;;;;;;4875241;29;20112;-87
2022/10/06 11:26:10;;;;;;;5.95;1.42;;;16.60;1.00;;;;;;4882159;29;20488;-87
2022/10/06 11:28:36;;;;;;;7.63;1.45;;;16.70;99.90;;;;;;4869599;29;20363;-87
2022/10/06 11:31:26;;;;;;;10.55;1.48;;;16.80;99.90;;;;;;4884039;29;20300;-87
2022/10/06 11:33:59;;;;;;;5.93;1.73;;;16.90;99.90;;;;;;4867967;29;20044;-87
2022/10/06 11:36:24;;;;;;;7.85;2.13;;;16.90;21.60;;;;;;4852763;29;20531;-88
2022/10/06 11:39:33;;;;;;;7.47;1.55;;;17.10;1.00;;;;;;4883422;29;20662;-89
2022/10/06 11:42:05;;;;;;;6.20;1.33;;;17.30;72.90;;;;;;4836047;29;20046;-87
2022/10/06 11:44:41;;;;;;;6.13;1.27;;;17.10;99.90;;;;;;4866217;29;20045;-87
2022/10/06 11:47:44;;;;;;;4.18;1.23;;;17.40;99.90;;;;;;4870928;29;20386;-87
2022/10/06 11:50:45;;;;;;;5.28;1.40;;;17.40;99.90;;;;;;4865012;29;20047;-87
2022/10/06 11:53:36;;;;;;;4.47;1.10;;;17.50;1.00;;;;;;4882733;29;20119;-87
2022/10/06 11:56:17;;;;;;;5.88;1.00;;;17.60;88.10;;;;;;4881575;29;20131;-87
2022/10/06 11:58:55;;;;;;;5.47;1.25;;;17.70;50.80;;;;;;4866834;29;20059;-87
2022/10/06 12:01:31;;;;;;;5.90;1.25;;;17.70;1.00;;;;;;4848139;29;20084;-86
2022/10/06 12:04:17;;;;;;;6.45;1.02;;;17.40;1.00;;;;;;4895137;29;20427;-88
2022/10/06 12:06:46;;;;;;;2.75;0.90;;;17.30;83.40;;;;;;4835774;29;20053;-87
2022/10/06 12:09:25;;;;;;;6.38;1.13;;;17.60;1.00;;;;;;4868964;29;20037;-87
2022/10/06 12:11:52;;;;;;;10.40;1.90;;;17.80;99.90;;;;;;4864292;29;20056;-87
2022/10/06 12:14:46;;;;;;;5.95;1.23;;;17.70;90.60;;;;;;4898410;29;20049;-87
2022/10/06 12:17:18;;;;;;;4.45;1.40;;;17.90;1.00;;;;;;4850435;29;20396;-86
2022/10/06 12:20:01;;;;;;;3.67;0.93;;;17.30;7.40;;;;;;4870991;29;20049;-88
2022/10/06 12:22:54;;;;;;;4.57;1.10;;;17.30;99.90;;;;;;4882736;29;20053;-87
2022/10/06 12:25:40;;;;;;;5.10;0.90;;;17.70;99.90;;;;;;4896600;29;20101;-86
2022/10/06 12:28:38;;;;;;;4.32;0.95;;;17.70;99.90;;;;;;4884624;29;20081;-87
2022/10/06 12:31:31;;;;;;;4.07;1.13;;;17.60;1.00;;;;;;4866225;29;20052;-87
2022/10/06 12:33:56;;;;;;;3.75;1.05;;;17.60;1.00;;;;;;4885875;29;20131;-87
2022/10/06 12:36:27;;;;;;;7.70;1.10;;;17.50;99.90;;;;;;4866441;29;20052;-87
2022/10/06 12:39:22;;;;;;;5.63;1.17;;;17.30;1.00;;;;;;4840339;29;20408;-87
2022/10/06 12:42:00;;;;;;;;;;;17.40;1.00;;;;;;4896460;29;20151;-87
2022/10/06 12:44:39;;;;;;;4.38;1.10;;;17.50;1.00;;;;;;4866626;29;20343;-87
2022/10/06 12:47:40;;;;;;;6.80;1.10;;;17.70;99.90;;;;;;4875085;29;20110;-87
2022/10/06 12:50:19;;;;;;;7.03;1.30;;;17.40;99.90;;;;;;4840464;29;20049;-87
2022/10/06 12:52:53;;;;;;;2.40;0.93;;;17.40;99.90;;;;;;4875524;29;20127;-86
2022/10/06 12:55:52;;;;;;;6.72;1.38;;;17.60;99.90;;;;;;4897448;29;20041;-86
2022/10/06 12:58:31;;;;;;;6.63;1.17;;;17.70;99.90;;;;;;4881811;29;20108;-87
2022/10/06 13:01:17;;;;;;;6.90;1.25;;;17.80;99.90;;;;;;4874040;29;20096;-87
2022/10/06 13:03:46;;;;;;;8.57;1.30;;;18.10;99.90;;;;;;4837428;29;20116;-87
2022/10/06 13:06:12;;;;;;;3.42;1.30;;;18.20;1.00;;;;;;4867036;29;20052;-86
2022/10/06 13:08:41;;;;;;;6.10;1.48;;;18.30;99.90;;;;;;4865401;29;20044;-87
2022/10/06 13:11:23;;;;;;;5.95;1.00;;;18.30;1.00;;;;;;4896170;29;20033;-87
2022/10/06 13:14:00;;;;;;;5.70;1.25;;;17.90;1.00;;;;;;4884415;29;20068;-87
2022/10/06 13:16:30;;;;;;;5.30;1.67;;;17.90;99.90;;;;;;4886188;29;20045;-86
2022/10/06 13:18:57;;;;;;;6.07;1.20;;;17.50;99.90;;;;;;4876382;29;20128;-86
2022/10/06 13:21:24;;;;;;;4.70;1.70;;;17.60;99.90;;;;;;4863475;29;20041;-86
2022/10/06 13:23:54;;;;;;;6.10;1.15;;;17.90;99.90;;;;;;4880664;29;20116;-86
2022/10/06 13:26:23;;;;;;;7.82;2.00;;;18.20;99.90;;;;;;4880963;29;20044;-86
2022/10/06 13:28:51;;;;;;;7.60;1.20;;;18.20;99.90;;;;;;4882805;29;20049;-86